Main page
METAR-TAF:

METAR-TAF

Airports :

International Airport Irkutsk

Irkutsk, Russia

latitude: 52-16N, longitude: 104-19E, elevation: 513 m

Current weather observation

The report was made 12 minutes ago, at 00:30 UTC
Wind 4 kt from the East
Temperature -19°C
Humidity 84%
Pressure 1029 hPa
Visibility: 8000 m

METAR: UIII 180030Z 09002MPS 8000 NSC M19/M21 Q1029 R12/810550 NOSIG RMK QFE729/0972

Time: 08:42 (00:42 UTC)

Forecast

The report was made 1 hour and 42 minutes ago, at 23:00 UTC
Forecast valid from 18 at 00 UTC to 18 at 24 UTC
Wind 6 kt from the East/Northeast
Visibility: 3100 m
Scattered clouds at a height of 300 ft
mist, smoke
From 18 at 0300 UTC
Wind 10 kt from the Southeast
Visibility 10 km or more

TAF: UIII 172300Z 1800/1824 06003MPS 3100 BR FU SCT003 FM180300 14005MPS 9999 NSC

Weather observations and forecasts of more than 4000 airports (METAR and TAF reports).

The available stations are represented by yellow and red dots on the map.

Hover mouse over dot to see the name of the station.

Then click to see weather observations and forecasts.

To change the map : click on the green buttons with a black cross to zoom in, on the green button with a dash to zoom out, or on the green arrows for adjacent maps.


METAR-TAF: